createdAt,value
2019-04-05T00:09:22.672Z,15.70
2019-04-05T00:39:25.326Z,16.30
2019-04-05T01:09:28.058Z,18.00
2019-04-05T01:39:30.664Z,16.93
2019-04-05T02:09:33.284Z,17.92
2019-04-05T02:39:35.960Z,16.50
2019-04-05T03:09:38.578Z,16.52
2019-04-05T03:39:41.183Z,16.85
2019-04-05T04:09:43.825Z,17.35
2019-04-05T04:39:46.437Z,19.95
2019-04-05T05:09:49.049Z,20.68
2019-04-05T05:39:54.598Z,17.98
2019-04-05T06:09:57.287Z,22.42
2019-04-05T06:40:00.084Z,19.40
2019-04-05T07:10:03.009Z,17.67
2019-04-05T07:40:05.760Z,19.85
2019-04-05T08:10:09.061Z,16.45
2019-04-05T08:40:11.689Z,15.88
2019-04-05T09:10:14.581Z,13.88
2019-04-05T09:40:17.272Z,14.85
2019-04-05T10:10:19.941Z,11.18
2019-04-05T10:40:22.571Z,9.20
2019-04-05T11:10:25.211Z,6.17
2019-04-05T11:40:27.962Z,6.85
2019-04-05T12:10:32.151Z,7.58
2019-04-05T12:40:34.888Z,6.15
2019-04-05T13:10:37.596Z,6.30
2019-04-05T13:40:40.212Z,7.25
2019-04-05T14:10:42.920Z,5.62
2019-04-05T14:40:45.564Z,6.72
2019-04-05T15:10:51.147Z,7.12
2019-04-05T15:40:52.496Z,9.98
2019-04-05T16:10:55.139Z,9.20
2019-04-05T16:40:57.783Z,10.15
2019-04-05T17:11:00.419Z,8.10
2019-04-05T17:41:03.192Z,7.42
2019-04-05T18:11:05.813Z,8.05
2019-04-05T18:41:08.436Z,9.10
2019-04-05T19:11:11.119Z,9.43
2019-04-05T20:11:18.156Z,10.65
2019-04-05T20:41:22.000Z,10.63
2019-04-05T21:11:27.063Z,12.82
2019-04-05T21:41:28.896Z,16.20
2019-04-05T22:11:31.542Z,17.95
2019-04-05T22:41:34.288Z,18.42
2019-04-05T23:11:36.931Z,16.67
2019-04-05T23:41:40.121Z,18.40
